sensor_id;sensor_type;location;lat;lon;timestamp;temperature;humidity
69503;SHT31;56704;54.242;12.442;2023-09-19T00:00:30;19.03;77.52
69503;SHT31;56704;54.242;12.442;2023-09-19T00:02:59;19.02;77.50
69503;SHT31;56704;54.242;12.442;2023-09-19T00:05:28;19.02;77.33
69503;SHT31;56704;54.242;12.442;2023-09-19T00:07:57;18.96;77.52
69503;SHT31;56704;54.242;12.442;2023-09-19T00:10:24;18.94;77.46
69503;SHT31;56704;54.242;12.442;2023-09-19T00:12:52;18.92;77.55
69503;SHT31;56704;54.242;12.442;2023-09-19T00:15:20;18.94;77.52
69503;SHT31;56704;54.242;12.442;2023-09-19T00:17:47;18.92;77.53
69503;SHT31;56704;54.242;12.442;2023-09-19T00:20:14;18.88;77.53
69503;SHT31;56704;54.242;12.442;2023-09-19T00:22:44;18.84;77.55
69503;SHT31;56704;54.242;12.442;2023-09-19T00:25:11;18.81;77.62
69503;SHT31;56704;54.242;12.442;2023-09-19T00:27:40;18.75;77.77
69503;SHT31;56704;54.242;12.442;2023-09-19T00:30:09;18.78;77.75
69503;SHT31;56704;54.242;12.442;2023-09-19T00:32:41;18.76;77.60
69503;SHT31;56704;54.242;12.442;2023-09-19T00:35:08;18.66;77.78
69503;SHT31;56704;54.242;12.442;2023-09-19T00:37:36;18.68;76.87
69503;SHT31;56704;54.242;12.442;2023-09-19T00:40:05;18.69;76.88
69503;SHT31;56704;54.242;12.442;2023-09-19T00:42:34;18.68;77.00
69503;SHT31;56704;54.242;12.442;2023-09-19T00:45:03;18.66;76.92
69503;SHT31;56704;54.242;12.442;2023-09-19T00:47:31;18.69;76.76
69503;SHT31;56704;54.242;12.442;2023-09-19T00:49:58;18.64;76.87
69503;SHT31;56704;54.242;12.442;2023-09-19T00:52:25;18.64;76.78
69503;SHT31;56704;54.242;12.442;2023-09-19T00:54:54;18.66;76.62
69503;SHT31;56704;54.242;12.442;2023-09-19T00:57:22;18.68;76.39
69503;SHT31;56704;54.242;12.442;2023-09-19T00:59:50;18.68;75.81
69503;SHT31;56704;54.242;12.442;2023-09-19T01:02:19;18.69;75.36
69503;SHT31;56704;54.242;12.442;2023-09-19T01:04:46;18.75;74.60
69503;SHT31;56704;54.242;12.442;2023-09-19T01:07:13;18.76;73.63
69503;SHT31;56704;54.242;12.442;2023-09-19T01:09:41;18.81;72.09
69503;SHT31;56704;54.242;12.442;2023-09-19T01:12:08;18.85;72.08
69503;SHT31;56704;54.242;12.442;2023-09-19T01:14:44;18.85;71.12
69503;SHT31;56704;54.242;12.442;2023-09-19T01:17:18;18.89;70.82
69503;SHT31;56704;54.242;12.442;2023-09-19T01:20:11;18.91;70.80
69503;SHT31;56704;54.242;12.442;2023-09-19T01:22:48;18.91;70.28
69503;SHT31;56704;54.242;12.442;2023-09-19T01:25:34;18.92;70.30
69503;SHT31;56704;54.242;12.442;2023-09-19T01:28:15;18.92;70.44
69503;SHT31;56704;54.242;12.442;2023-09-19T01:30:52;18.91;70.40
69503;SHT31;56704;54.242;12.442;2023-09-19T01:33:23;18.91;70.12
69503;SHT31;56704;54.242;12.442;2023-09-19T01:35:49;18.86;70.44
69503;SHT31;56704;54.242;12.442;2023-09-19T01:38:18;18.85;70.71
69503;SHT31;56704;54.242;12.442;2023-09-19T01:40:52;18.79;70.71
69503;SHT31;56704;54.242;12.442;2023-09-19T01:43:29;18.72;71.26
69503;SHT31;56704;54.242;12.442;2023-09-19T01:46:05;18.76;71.15
69503;SHT31;56704;54.242;12.442;2023-09-19T01:48:41;18.71;71.24
69503;SHT31;56704;54.242;12.442;2023-09-19T01:51:14;18.65;71.52
69503;SHT31;56704;54.242;12.442;2023-09-19T01:53:53;18.61;71.83
69503;SHT31;56704;54.242;12.442;2023-09-19T01:56:30;18.54;72.21
69503;SHT31;56704;54.242;12.442;2023-09-19T01:59:05;18.51;72.35
69503;SHT31;56704;54.242;12.442;2023-09-19T02:01:37;18.44;72.65
69503;SHT31;56704;54.242;12.442;2023-09-19T02:04:04;18.40;72.90
69503;SHT31;56704;54.242;12.442;2023-09-19T02:06:31;18.41;72.98
69503;SHT31;56704;54.242;12.442;2023-09-19T02:08:59;18.43;73.19
69503;SHT31;56704;54.242;12.442;2023-09-19T02:11:25;18.34;73.35
69503;SHT31;56704;54.242;12.442;2023-09-19T02:13:52;18.34;73.43
69503;SHT31;56704;54.242;12.442;2023-09-19T02:16:20;18.28;73.70
69503;SHT31;56704;54.242;12.442;2023-09-19T02:18:48;18.20;74.15
69503;SHT31;56704;54.242;12.442;2023-09-19T02:21:16;18.15;74.37
69503;SHT31;56704;54.242;12.442;2023-09-19T02:23:43;18.07;74.64
69503;SHT31;56704;54.242;12.442;2023-09-19T02:26:10;18.04;74.80
69503;SHT31;56704;54.242;12.442;2023-09-19T02:28:37;18.06;74.92
69503;SHT31;56704;54.242;12.442;2023-09-19T02:31:03;18.00;75.16
69503;SHT31;56704;54.242;12.442;2023-09-19T02:33:31;17.96;75.34
69503;SHT31;56704;54.242;12.442;2023-09-19T02:36:00;18.04;75.06
69503;SHT31;56704;54.242;12.442;2023-09-19T02:38:29;18.00;75.21
69503;SHT31;56704;54.242;12.442;2023-09-19T02:40:56;17.98;75.38
69503;SHT31;56704;54.242;12.442;2023-09-19T02:43:23;18.01;75.36
69503;SHT31;56704;54.242;12.442;2023-09-19T02:45:50;17.96;75.49
69503;SHT31;56704;54.242;12.442;2023-09-19T02:48:18;17.87;75.75
69503;SHT31;56704;54.242;12.442;2023-09-19T02:50:45;17.89;75.78
69503;SHT31;56704;54.242;12.442;2023-09-19T02:53:13;17.83;75.95
69503;SHT31;56704;54.242;12.442;2023-09-19T02:55:40;17.77;76.08
69503;SHT31;56704;54.242;12.442;2023-09-19T02:58:06;17.83;76.11
69503;SHT31;56704;54.242;12.442;2023-09-19T03:00:36;17.79;76.05
69503;SHT31;56704;54.242;12.442;2023-09-19T03:03:07;17.73;76.44
69503;SHT31;56704;54.242;12.442;2023-09-19T03:05:34;17.66;76.46
69503;SHT31;56704;54.242;12.442;2023-09-19T03:08:01;17.70;76.30
69503;SHT31;56704;54.242;12.442;2023-09-19T03:10:30;17.66;76.39
69503;SHT31;56704;54.242;12.442;2023-09-19T03:12:57;17.65;76.39
69503;SHT31;56704;54.242;12.442;2023-09-19T03:15:25;17.65;76.57
69503;SHT31;56704;54.242;12.442;2023-09-19T03:17:51;17.57;76.85
69503;SHT31;56704;54.242;12.442;2023-09-19T03:20:19;17.50;76.98
69503;SHT31;56704;54.242;12.442;2023-09-19T03:22:46;17.52;76.97
69503;SHT31;56704;54.242;12.442;2023-09-19T03:25:13;17.43;77.23
69503;SHT31;56704;54.242;12.442;2023-09-19T03:27:42;17.39;77.43
69503;SHT31;56704;54.242;12.442;2023-09-19T03:30:09;17.36;77.51
69503;SHT31;56704;54.242;12.442;2023-09-19T03:32:43;17.32;77.63
69503;SHT31;56704;54.242;12.442;2023-09-19T03:35:10;17.25;77.90
69503;SHT31;56704;54.242;12.442;2023-09-19T03:37:39;17.23;77.83
69503;SHT31;56704;54.242;12.442;2023-09-19T03:40:07;17.19;78.15
69503;SHT31;56704;54.242;12.442;2023-09-19T03:42:38;17.11;78.33
69503;SHT31;56704;54.242;12.442;2023-09-19T03:45:07;17.08;78.36
69503;SHT31;56704;54.242;12.442;2023-09-19T03:47:37;17.04;78.51
69503;SHT31;56704;54.242;12.442;2023-09-19T03:50:05;16.96;78.68
69503;SHT31;56704;54.242;12.442;2023-09-19T03:52:32;16.94;78.87
69503;SHT31;56704;54.242;12.442;2023-09-19T03:54:58;16.91;78.88
69503;SHT31;56704;54.242;12.442;2023-09-19T03:57:25;16.88;79.19
69503;SHT31;56704;54.242;12.442;2023-09-19T03:59:51;16.87;79.27
69503;SHT31;56704;54.242;12.442;2023-09-19T04:02:20;16.85;79.42
69503;SHT31;56704;54.242;12.442;2023-09-19T04:04:49;16.84;79.40
69503;SHT31;56704;54.242;12.442;2023-09-19T04:07:15;16.82;79.49
69503;SHT31;56704;54.242;12.442;2023-09-19T04:09:42;16.81;79.38
69503;SHT31;56704;54.242;12.442;2023-09-19T04:12:08;16.80;79.47
69503;SHT31;56704;54.242;12.442;2023-09-19T04:14:35;16.72;79.64
69503;SHT31;56704;54.242;12.442;2023-09-19T04:17:02;16.65;79.78
69503;SHT31;56704;54.242;12.442;2023-09-19T04:19:30;16.61;79.88
69503;SHT31;56704;54.242;12.442;2023-09-19T04:21:56;16.61;79.75
69503;SHT31;56704;54.242;12.442;2023-09-19T04:24:23;16.56;79.85
69503;SHT31;56704;54.242;12.442;2023-09-19T04:26:49;16.54;79.95
69503;SHT31;56704;54.242;12.442;2023-09-19T04:29:16;16.50;80.06
69503;SHT31;56704;54.242;12.442;2023-09-19T04:31:44;16.40;80.36
69503;SHT31;56704;54.242;12.442;2023-09-19T04:34:11;16.41;80.22
69503;SHT31;56704;54.242;12.442;2023-09-19T04:36:41;16.40;80.22
69503;SHT31;56704;54.242;12.442;2023-09-19T04:39:08;16.33;80.33
69503;SHT31;56704;54.242;12.442;2023-09-19T04:41:36;16.30;80.26
69503;SHT31;56704;54.242;12.442;2023-09-19T04:44:04;16.30;80.07
69503;SHT31;56704;54.242;12.442;2023-09-19T04:46:31;16.33;79.98
69503;SHT31;56704;54.242;12.442;2023-09-19T04:48:58;16.31;79.82
69503;SHT31;56704;54.242;12.442;2023-09-19T04:51:24;16.33;79.70
69503;SHT31;56704;54.242;12.442;2023-09-19T04:53:55;16.30;79.76
69503;SHT31;56704;54.242;12.442;2023-09-19T04:56:22;16.31;79.76
69503;SHT31;56704;54.242;12.442;2023-09-19T04:58:49;16.29;79.90
69503;SHT31;56704;54.242;12.442;2023-09-19T05:01:16;16.21;80.13
69503;SHT31;56704;54.242;12.442;2023-09-19T05:03:42;16.19;80.17
69503;SHT31;56704;54.242;12.442;2023-09-19T05:06:10;16.20;80.18
69503;SHT31;56704;54.242;12.442;2023-09-19T05:08:36;16.13;80.39
69503;SHT31;56704;54.242;12.442;2023-09-19T05:11:05;16.12;80.39
69503;SHT31;56704;54.242;12.442;2023-09-19T05:13:31;16.09;80.46
69503;SHT31;56704;54.242;12.442;2023-09-19T05:16:00;16.13;80.04
69503;SHT31;56704;54.242;12.442;2023-09-19T05:18:28;16.10;80.20
69503;SHT31;56704;54.242;12.442;2023-09-19T05:20:54;16.09;80.22
69503;SHT31;56704;54.242;12.442;2023-09-19T05:23:21;16.10;80.31
69503;SHT31;56704;54.242;12.442;2023-09-19T05:25:48;16.13;80.18
69503;SHT31;56704;54.242;12.442;2023-09-19T05:28:16;16.17;80.12
69503;SHT31;56704;54.242;12.442;2023-09-19T05:30:42;16.21;79.93
69503;SHT31;56704;54.242;12.442;2023-09-19T05:33:09;16.26;79.98
69503;SHT31;56704;54.242;12.442;2023-09-19T05:35:36;16.29;79.88
69503;SHT31;56704;54.242;12.442;2023-09-19T05:38:05;16.24;80.03
69503;SHT31;56704;54.242;12.442;2023-09-19T05:40:34;16.20;80.24
69503;SHT31;56704;54.242;12.442;2023-09-19T05:43:01;16.27;80.08
69503;SHT31;56704;54.242;12.442;2023-09-19T05:45:30;16.30;80.07
69503;SHT31;56704;54.242;12.442;2023-09-19T05:48:07;16.29;79.85
69503;SHT31;56704;54.242;12.442;2023-09-19T05:50:34;16.36;79.71
69503;SHT31;56704;54.242;12.442;2023-09-19T05:53:01;16.31;79.43
69503;SHT31;56704;54.242;12.442;2023-09-19T05:55:29;16.36;79.47
69503;SHT31;56704;54.242;12.442;2023-09-19T05:57:56;16.37;79.55
69503;SHT31;56704;54.242;12.442;2023-09-19T06:00:24;16.46;79.32
69503;SHT31;56704;54.242;12.442;2023-09-19T06:02:55;16.53;78.71
69503;SHT31;56704;54.242;12.442;2023-09-19T06:05:22;16.57;77.79
69503;SHT31;56704;54.242;12.442;2023-09-19T06:07:49;16.56;77.66
69503;SHT31;56704;54.242;12.442;2023-09-19T06:10:16;16.54;77.74
69503;SHT31;56704;54.242;12.442;2023-09-19T06:12:43;16.51;77.95
69503;SHT31;56704;54.242;12.442;2023-09-19T06:15:10;16.50;77.65
69503;SHT31;56704;54.242;12.442;2023-09-19T06:17:41;16.46;77.73
69503;SHT31;56704;54.242;12.442;2023-09-19T06:20:09;16.51;77.41
69503;SHT31;56704;54.242;12.442;2023-09-19T06:22:40;16.50;76.74
69503;SHT31;56704;54.242;12.442;2023-09-19T06:25:08;16.53;76.71
69503;SHT31;56704;54.242;12.442;2023-09-19T06:27:36;16.67;76.28
69503;SHT31;56704;54.242;12.442;2023-09-19T06:30:04;16.81;75.64
69503;SHT31;56704;54.242;12.442;2023-09-19T06:32:32;17.01;75.24
69503;SHT31;56704;54.242;12.442;2023-09-19T06:34:58;17.29;74.73
69503;SHT31;56704;54.242;12.442;2023-09-19T06:37:28;17.18;74.06
69503;SHT31;56704;54.242;12.442;2023-09-19T06:39:54;17.14;73.88
69503;SHT31;56704;54.242;12.442;2023-09-19T06:42:22;17.02;74.56
69503;SHT31;56704;54.242;12.442;2023-09-19T06:44:49;16.98;74.58
69503;SHT31;56704;54.242;12.442;2023-09-19T06:47:15;16.98;74.70
69503;SHT31;56704;54.242;12.442;2023-09-19T06:49:42;16.91;74.77
69503;SHT31;56704;54.242;12.442;2023-09-19T06:52:09;17.08;74.43
69503;SHT31;56704;54.242;12.442;2023-09-19T06:54:37;17.23;73.91
69503;SHT31;56704;54.242;12.442;2023-09-19T06:57:05;17.47;74.28
69503;SHT31;56704;54.242;12.442;2023-09-19T06:59:34;17.45;72.98
69503;SHT31;56704;54.242;12.442;2023-09-19T07:02:02;17.42;72.60
69503;SHT31;56704;54.242;12.442;2023-09-19T07:04:31;17.28;73.04
69503;SHT31;56704;54.242;12.442;2023-09-19T07:06:58;17.07;72.00
69503;SHT31;56704;54.242;12.442;2023-09-19T07:09:24;17.21;71.45
69503;SHT31;56704;54.242;12.442;2023-09-19T07:11:54;17.39;70.54
69503;SHT31;56704;54.242;12.442;2023-09-19T07:14:20;17.52;69.86
69503;SHT31;56704;54.242;12.442;2023-09-19T07:16:47;17.42;69.68
69503;SHT31;56704;54.242;12.442;2023-09-19T07:19:16;17.50;69.46
69503;SHT31;56704;54.242;12.442;2023-09-19T07:21:42;17.56;69.29
69503;SHT31;56704;54.242;12.442;2023-09-19T07:24:09;17.53;68.48
69503;SHT31;56704;54.242;12.442;2023-09-19T07:26:35;17.73;68.09
69503;SHT31;56704;54.242;12.442;2023-09-19T07:29:03;17.67;66.71
69503;SHT31;56704;54.242;12.442;2023-09-19T07:31:32;17.57;66.08
69503;SHT31;56704;54.242;12.442;2023-09-19T07:33:59;17.55;66.71
69503;SHT31;56704;54.242;12.442;2023-09-19T07:36:25;17.66;65.86
69503;SHT31;56704;54.242;12.442;2023-09-19T07:38:55;17.56;64.46
69503;SHT31;56704;54.242;12.442;2023-09-19T07:41:23;17.40;64.99
69503;SHT31;56704;54.242;12.442;2023-09-19T07:43:50;17.38;65.04
69503;SHT31;56704;54.242;12.442;2023-09-19T07:46:18;17.39;65.24
69503;SHT31;56704;54.242;12.442;2023-09-19T07:48:46;17.33;64.24
69503;SHT31;56704;54.242;12.442;2023-09-19T07:51:14;17.31;65.18
69503;SHT31;56704;54.242;12.442;2023-09-19T07:53:41;17.39;64.84
69503;SHT31;56704;54.242;12.442;2023-09-19T07:56:09;17.22;62.87
69503;SHT31;56704;54.242;12.442;2023-09-19T07:58:39;17.23;63.19
69503;SHT31;56704;54.242;12.442;2023-09-19T08:01:07;17.29;62.40
69503;SHT31;56704;54.242;12.442;2023-09-19T08:03:36;17.42;62.24
69503;SHT31;56704;54.242;12.442;2023-09-19T08:06:06;17.49;61.85
69503;SHT31;56704;54.242;12.442;2023-09-19T08:08:33;17.50;60.55
69503;SHT31;56704;54.242;12.442;2023-09-19T08:11:02;17.57;60.44
69503;SHT31;56704;54.242;12.442;2023-09-19T08:13:35;17.52;59.76
69503;SHT31;56704;54.242;12.442;2023-09-19T08:16:03;17.69;59.05
69503;SHT31;56704;54.242;12.442;2023-09-19T08:18:29;17.83;59.84
69503;SHT31;56704;54.242;12.442;2023-09-19T08:20:57;18.00;59.27
69503;SHT31;56704;54.242;12.442;2023-09-19T08:23:25;17.97;59.40
69503;SHT31;56704;54.242;12.442;2023-09-19T08:25:56;18.13;58.54
69503;SHT31;56704;54.242;12.442;2023-09-19T08:28:23;18.18;58.43
69503;SHT31;56704;54.242;12.442;2023-09-19T08:30:50;18.08;59.17
69503;SHT31;56704;54.242;12.442;2023-09-19T08:33:17;17.98;58.68
69503;SHT31;56704;54.242;12.442;2023-09-19T08:35:45;17.87;58.38
69503;SHT31;56704;54.242;12.442;2023-09-19T08:38:13;18.00;58.62
69503;SHT31;56704;54.242;12.442;2023-09-19T08:40:39;18.10;58.22
69503;SHT31;56704;54.242;12.442;2023-09-19T08:43:07;18.23;58.59
69503;SHT31;56704;54.242;12.442;2023-09-19T08:45:34;18.40;58.40
69503;SHT31;56704;54.242;12.442;2023-09-19T08:48:12;18.25;57.24
69503;SHT31;56704;54.242;12.442;2023-09-19T08:50:45;18.38;57.91
69503;SHT31;56704;54.242;12.442;2023-09-19T08:53:21;18.44;57.70
69503;SHT31;56704;54.242;12.442;2023-09-19T08:55:51;18.45;57.86
69503;SHT31;56704;54.242;12.442;2023-09-19T08:58:19;18.41;57.21
69503;SHT31;56704;54.242;12.442;2023-09-19T09:00:48;18.45;56.35
69503;SHT31;56704;54.242;12.442;2023-09-19T09:03:16;18.33;56.82
69503;SHT31;56704;54.242;12.442;2023-09-19T09:05:46;18.33;57.16
69503;SHT31;56704;54.242;12.442;2023-09-19T09:08:14;18.37;57.40
69503;SHT31;56704;54.242;12.442;2023-09-19T09:10:44;18.44;57.62
69503;SHT31;56704;54.242;12.442;2023-09-19T09:13:10;18.38;57.36
69503;SHT31;56704;54.242;12.442;2023-09-19T09:15:40;18.44;57.37
69503;SHT31;56704;54.242;12.442;2023-09-19T09:18:09;18.41;57.61
69503;SHT31;56704;54.242;12.442;2023-09-19T09:20:36;18.25;57.46
69503;SHT31;56704;54.242;12.442;2023-09-19T09:23:02;18.30;58.40
69503;SHT31;56704;54.242;12.442;2023-09-19T09:25:52;18.41;57.98
69503;SHT31;56704;54.242;12.442;2023-09-19T09:28:23;18.54;58.36
69503;SHT31;56704;54.242;12.442;2023-09-19T09:30:50;18.41;58.21
69503;SHT31;56704;54.242;12.442;2023-09-19T09:33:17;18.45;58.59
69503;SHT31;56704;54.242;12.442;2023-09-19T09:35:54;18.43;58.56
69503;SHT31;56704;54.242;12.442;2023-09-19T09:38:23;18.48;57.18
69503;SHT31;56704;54.242;12.442;2023-09-19T09:40:55;18.45;57.42
69503;SHT31;56704;54.242;12.442;2023-09-19T09:43:31;18.49;57.71
69503;SHT31;56704;54.242;12.442;2023-09-19T09:46:12;18.58;57.49
69503;SHT31;56704;54.242;12.442;2023-09-19T09:48:56;18.68;57.31
69503;SHT31;56704;54.242;12.442;2023-09-19T09:51:59;18.69;57.46
69503;SHT31;56704;54.242;12.442;2023-09-19T09:54:32;18.71;55.99
69503;SHT31;56704;54.242;12.442;2023-09-19T09:57:04;18.54;56.66
69503;SHT31;56704;54.242;12.442;2023-09-19T09:59:50;18.61;55.33
69503;SHT31;56704;54.242;12.442;2023-09-19T10:02:19;18.75;56.16
69503;SHT31;56704;54.242;12.442;2023-09-19T10:04:50;18.68;56.04
69503;SHT31;56704;54.242;12.442;2023-09-19T10:07:36;18.76;56.47
69503;SHT31;56704;54.242;12.442;2023-09-19T10:10:06;19.07;55.12
69503;SHT31;56704;54.242;12.442;2023-09-19T10:12:45;19.13;54.86
69503;SHT31;56704;54.242;12.442;2023-09-19T10:15:14;18.86;54.52
69503;SHT31;56704;54.242;12.442;2023-09-19T10:17:43;18.82;55.56
69503;SHT31;56704;54.242;12.442;2023-09-19T10:20:12;18.78;55.72
69503;SHT31;56704;54.242;12.442;2023-09-19T10:22:54;18.71;56.63
69503;SHT31;56704;54.242;12.442;2023-09-19T10:25:26;18.57;56.53
69503;SHT31;56704;54.242;12.442;2023-09-19T10:27:56;18.59;57.13
69503;SHT31;56704;54.242;12.442;2023-09-19T10:30:24;18.61;57.07
69503;SHT31;56704;54.242;12.442;2023-09-19T10:33:03;18.47;56.40
69503;SHT31;56704;54.242;12.442;2023-09-19T10:35:32;18.37;56.77
69503;SHT31;56704;54.242;12.442;2023-09-19T10:38:01;18.31;57.62
69503;SHT31;56704;54.242;12.442;2023-09-19T10:40:28;18.37;57.63
69503;SHT31;56704;54.242;12.442;2023-09-19T10:43:04;18.44;58.33
69503;SHT31;56704;54.242;12.442;2023-09-19T10:45:33;18.68;57.56
69503;SHT31;56704;54.242;12.442;2023-09-19T10:48:00;18.58;55.28
69503;SHT31;56704;54.242;12.442;2023-09-19T10:50:32;18.38;54.82
69503;SHT31;56704;54.242;12.442;2023-09-19T10:53:04;18.20;55.18
69503;SHT31;56704;54.242;12.442;2023-09-19T10:55:34;18.20;55.30
69503;SHT31;56704;54.242;12.442;2023-09-19T10:58:02;18.18;55.01
69503;SHT31;56704;54.242;12.442;2023-09-19T11:00:51;18.24;55.56
69503;SHT31;56704;54.242;12.442;2023-09-19T11:03:19;18.25;55.85
69503;SHT31;56704;54.242;12.442;2023-09-19T11:06:07;18.15;56.39
69503;SHT31;56704;54.242;12.442;2023-09-19T11:09:01;18.31;56.66
69503;SHT31;56704;54.242;12.442;2023-09-19T11:11:49;18.33;56.17
69503;SHT31;56704;54.242;12.442;2023-09-19T11:17:41;18.40;56.06
69503;SHT31;56704;54.242;12.442;2023-09-19T11:20:24;18.47;55.83
69503;SHT31;56704;54.242;12.442;2023-09-19T11:23:22;18.51;56.37
69503;SHT31;56704;54.242;12.442;2023-09-19T11:25:54;18.51;56.51
69503;SHT31;56704;54.242;12.442;2023-09-19T11:28:38;18.66;56.61
69503;SHT31;56704;54.242;12.442;2023-09-19T11:34:54;18.84;55.05
69503;SHT31;56704;54.242;12.442;2023-09-19T11:38:00;19.09;54.76
69503;SHT31;56704;54.242;12.442;2023-09-19T11:40:45;19.20;54.98
69503;SHT31;56704;54.242;12.442;2023-09-19T11:43:33;19.22;53.90
69503;SHT31;56704;54.242;12.442;2023-09-19T11:46:07;19.33;53.40
69503;SHT31;56704;54.242;12.442;2023-09-19T11:48:35;19.49;52.84
69503;SHT31;56704;54.242;12.442;2023-09-19T11:51:11;19.47;51.98
69503;SHT31;56704;54.242;12.442;2023-09-19T11:53:45;19.45;52.01
69503;SHT31;56704;54.242;12.442;2023-09-19T11:56:14;19.34;51.30
69503;SHT31;56704;54.242;12.442;2023-09-19T11:58:44;19.57;51.85
69503;SHT31;56704;54.242;12.442;2023-09-19T12:01:13;19.80;50.76
69503;SHT31;56704;54.242;12.442;2023-09-19T12:03:42;19.73;50.29
69503;SHT31;56704;54.242;12.442;2023-09-19T12:06:14;20.07;50.73
69503;SHT31;56704;54.242;12.442;2023-09-19T12:08:41;20.19;48.53
69503;SHT31;56704;54.242;12.442;2023-09-19T12:11:15;20.26;47.84
69503;SHT31;56704;54.242;12.442;2023-09-19T12:13:44;20.26;47.76
69503;SHT31;56704;54.242;12.442;2023-09-19T12:16:13;20.19;48.10
69503;SHT31;56704;54.242;12.442;2023-09-19T12:18:41;20.21;48.20
69503;SHT31;56704;54.242;12.442;2023-09-19T12:21:21;20.18;48.35
69503;SHT31;56704;54.242;12.442;2023-09-19T12:24:06;20.35;48.44
69503;SHT31;56704;54.242;12.442;2023-09-19T12:26:41;20.43;47.38
69503;SHT31;56704;54.242;12.442;2023-09-19T12:29:17;20.53;46.47
69503;SHT31;56704;54.242;12.442;2023-09-19T12:31:51;20.41;47.70
69503;SHT31;56704;54.242;12.442;2023-09-19T12:34:21;20.39;46.15
69503;SHT31;56704;54.242;12.442;2023-09-19T12:36:49;20.25;46.91
69503;SHT31;56704;54.242;12.442;2023-09-19T12:39:24;20.17;47.32
69503;SHT31;56704;54.242;12.442;2023-09-19T12:41:52;20.32;47.31
69503;SHT31;56704;54.242;12.442;2023-09-19T12:44:21;19.97;46.95
69503;SHT31;56704;54.242;12.442;2023-09-19T12:46:49;19.80;47.85
69503;SHT31;56704;54.242;12.442;2023-09-19T12:49:17;19.84;47.74
69503;SHT31;56704;54.242;12.442;2023-09-19T12:51:45;19.66;48.51
69503;SHT31;56704;54.242;12.442;2023-09-19T12:54:12;19.60;49.16
69503;SHT31;56704;54.242;12.442;2023-09-19T12:56:42;19.67;49.01
69503;SHT31;56704;54.242;12.442;2023-09-19T12:59:11;19.51;49.53
69503;SHT31;56704;54.242;12.442;2023-09-19T13:01:41;19.61;49.83
69503;SHT31;56704;54.242;12.442;2023-09-19T13:04:13;19.74;48.76
69503;SHT31;56704;54.242;12.442;2023-09-19T13:06:43;19.70;48.50
69503;SHT31;56704;54.242;12.442;2023-09-19T13:09:11;19.63;48.85
69503;SHT31;56704;54.242;12.442;2023-09-19T13:11:40;19.92;48.64
69503;SHT31;56704;54.242;12.442;2023-09-19T13:14:20;19.77;48.63
69503;SHT31;56704;54.242;12.442;2023-09-19T13:16:59;19.77;49.20
69503;SHT31;56704;54.242;12.442;2023-09-19T13:19:40;19.57;49.45
69503;SHT31;56704;54.242;12.442;2023-09-19T13:22:37;19.63;50.12
69503;SHT31;56704;54.242;12.442;2023-09-19T13:25:08;19.75;50.41
69503;SHT31;56704;54.242;12.442;2023-09-19T13:27:39;20.05;50.61
69503;SHT31;56704;54.242;12.442;2023-09-19T13:30:07;20.24;49.88
69503;SHT31;56704;54.242;12.442;2023-09-19T13:32:35;20.19;49.60
69503;SHT31;56704;54.242;12.442;2023-09-19T13:35:03;19.88;50.62
69503;SHT31;56704;54.242;12.442;2023-09-19T13:37:30;19.66;51.58
69503;SHT31;56704;54.242;12.442;2023-09-19T13:39:57;19.68;51.65
69503;SHT31;56704;54.242;12.442;2023-09-19T13:42:25;19.63;51.19
69503;SHT31;56704;54.242;12.442;2023-09-19T13:44:55;19.73;50.88
69503;SHT31;56704;54.242;12.442;2023-09-19T13:47:21;19.77;51.06
69503;SHT31;56704;54.242;12.442;2023-09-19T13:49:51;19.85;50.97
69503;SHT31;56704;54.242;12.442;2023-09-19T13:52:18;19.84;50.58
69503;SHT31;56704;54.242;12.442;2023-09-19T13:54:44;19.78;50.92
69503;SHT31;56704;54.242;12.442;2023-09-19T13:57:11;19.95;50.82
69503;SHT31;56704;54.242;12.442;2023-09-19T13:59:38;19.80;50.66
69503;SHT31;56704;54.242;12.442;2023-09-19T14:02:05;19.71;51.40
69503;SHT31;56704;54.242;12.442;2023-09-19T14:04:32;19.73;51.40
69503;SHT31;56704;54.242;12.442;2023-09-19T14:07:01;19.71;51.37
69503;SHT31;56704;54.242;12.442;2023-09-19T14:09:28;19.73;51.32
69503;SHT31;56704;54.242;12.442;2023-09-19T14:11:55;19.75;50.35
69503;SHT31;56704;54.242;12.442;2023-09-19T14:14:22;19.81;50.00
69503;SHT31;56704;54.242;12.442;2023-09-19T14:16:49;19.90;49.89
69503;SHT31;56704;54.242;12.442;2023-09-19T14:19:16;19.67;50.88
69503;SHT31;56704;54.242;12.442;2023-09-19T14:21:42;19.74;50.52
69503;SHT31;56704;54.242;12.442;2023-09-19T14:24:10;19.78;51.23
69503;SHT31;56704;54.242;12.442;2023-09-19T14:26:37;19.71;50.16
69503;SHT31;56704;54.242;12.442;2023-09-19T14:29:04;19.78;50.35
69503;SHT31;56704;54.242;12.442;2023-09-19T14:31:33;19.74;50.05
69503;SHT31;56704;54.242;12.442;2023-09-19T14:34:00;19.73;49.94
69503;SHT31;56704;54.242;12.442;2023-09-19T14:36:27;19.64;49.96
69503;SHT31;56704;54.242;12.442;2023-09-19T14:38:55;19.68;49.89
69503;SHT31;56704;54.242;12.442;2023-09-19T14:41:23;19.67;49.56
69503;SHT31;56704;54.242;12.442;2023-09-19T14:43:51;19.60;50.15
69503;SHT31;56704;54.242;12.442;2023-09-19T14:46:45;19.74;49.75
69503;SHT31;56704;54.242;12.442;2023-09-19T14:49:12;19.82;50.25
69503;SHT31;56704;54.242;12.442;2023-09-19T14:51:40;20.02;50.13
69503;SHT31;56704;54.242;12.442;2023-09-19T14:54:09;20.35;49.50
69503;SHT31;56704;54.242;12.442;2023-09-19T14:56:37;20.45;47.97
69503;SHT31;56704;54.242;12.442;2023-09-19T14:59:04;21.27;47.21
69503;SHT31;56704;54.242;12.442;2023-09-19T15:01:32;21.96;45.46
69503;SHT31;56704;54.242;12.442;2023-09-19T15:03:59;21.89;45.14
69503;SHT31;56704;54.242;12.442;2023-09-19T15:06:26;21.28;45.19
69503;SHT31;56704;54.242;12.442;2023-09-19T15:08:53;21.23;45.48
69503;SHT31;56704;54.242;12.442;2023-09-19T15:11:20;21.35;46.22
69503;SHT31;56704;54.242;12.442;2023-09-19T15:13:51;20.99;46.29
69503;SHT31;56704;54.242;12.442;2023-09-19T15:16:19;20.82;46.98
69503;SHT31;56704;54.242;12.442;2023-09-19T15:18:46;20.73;47.09
69503;SHT31;56704;54.242;12.442;2023-09-19T15:21:15;20.45;47.55
69503;SHT31;56704;54.242;12.442;2023-09-19T15:23:43;20.51;47.72
69503;SHT31;56704;54.242;12.442;2023-09-19T15:26:11;20.17;48.11
69503;SHT31;56704;54.242;12.442;2023-09-19T15:28:38;20.21;48.13
69503;SHT31;56704;54.242;12.442;2023-09-19T15:31:07;20.19;48.68
69503;SHT31;56704;54.242;12.442;2023-09-19T15:33:34;20.15;48.21
69503;SHT31;56704;54.242;12.442;2023-09-19T15:36:02;20.31;47.59
69503;SHT31;56704;54.242;12.442;2023-09-19T15:38:30;20.11;48.16